sensor_id;sensor_type;location;lat;lon;timestamp;P1;durP1;ratioP1;P2;durP2;ratioP2
43857;SDS011;29507;51.284;5.758;2023-04-01T00:01:24;5.65;;;0.98;;
43857;SDS011;29507;51.284;5.758;2023-04-01T00:03:50;4.95;;;0.82;;
43857;SDS011;29507;51.284;5.758;2023-04-01T00:06:16;4.70;;;0.70;;
43857;SDS011;29507;51.284;5.758;2023-04-01T00:08:42;2.30;;;0.85;;
43857;SDS011;29507;51.284;5.758;2023-04-01T00:11:09;2.72;;;1.10;;
43857;SDS011;29507;51.284;5.758;2023-04-01T00:13:34;2.67;;;0.80;;
43857;SDS011;29507;51.284;5.758;2023-04-01T00:16:00;4.22;;;1.17;;
43857;SDS011;29507;51.284;5.758;2023-04-01T00:18:27;8.85;;;1.20;;
43857;SDS011;29507;51.284;5.758;2023-04-01T00:20:53;5.15;;;1.00;;
43857;SDS011;29507;51.284;5.758;2023-04-01T00:23:19;3.72;;;0.95;;
43857;SDS011;29507;51.284;5.758;2023-04-01T00:25:45;5.88;;;1.20;;
43857;SDS011;29507;51.284;5.758;2023-04-01T00:28:13;1.85;;;0.93;;
43857;SDS011;29507;51.284;5.758;2023-04-01T00:30:39;2.97;;;1.08;;
43857;SDS011;29507;51.284;5.758;2023-04-01T00:33:05;3.28;;;0.70;;
43857;SDS011;29507;51.284;5.758;2023-04-01T00:35:31;4.82;;;0.80;;
43857;SDS011;29507;51.284;5.758;2023-04-01T00:37:57;9.60;;;1.35;;
43857;SDS011;29507;51.284;5.758;2023-04-01T00:43:00;5.20;;;0.60;;
43857;SDS011;29507;51.284;5.758;2023-04-01T00:45:33;4.72;;;0.82;;
43857;SDS011;29507;51.284;5.758;2023-04-01T00:48:06;7.37;;;1.27;;
43857;SDS011;29507;51.284;5.758;2023-04-01T00:50:35;4.90;;;0.60;;
43857;SDS011;29507;51.284;5.758;2023-04-01T00:53:01;4.28;;;0.80;;
43857;SDS011;29507;51.284;5.758;2023-04-01T00:55:29;4.40;;;0.98;;
43857;SDS011;29507;51.284;5.758;2023-04-01T00:57:58;2.47;;;0.77;;
43857;SDS011;29507;51.284;5.758;2023-04-01T01:00:26;3.10;;;0.77;;
43857;SDS011;29507;51.284;5.758;2023-04-01T01:02:52;3.22;;;0.95;;
43857;SDS011;29507;51.284;5.758;2023-04-01T01:05:19;6.63;;;1.00;;
43857;SDS011;29507;51.284;5.758;2023-04-01T01:10:56;1.58;;;0.75;;
43857;SDS011;29507;51.284;5.758;2023-04-01T01:13:31;2.33;;;0.75;;
43857;SDS011;29507;51.284;5.758;2023-04-01T01:24:26;2.60;;;0.63;;
43857;SDS011;29507;51.284;5.758;2023-04-01T01:27:13;6.60;;;0.90;;
43857;SDS011;29507;51.284;5.758;2023-04-01T01:32:55;3.83;;;0.63;;
43857;SDS011;29507;51.284;5.758;2023-04-01T01:35:51;2.38;;;0.70;;
43857;SDS011;29507;51.284;5.758;2023-04-01T01:38:21;4.57;;;1.00;;
43857;SDS011;29507;51.284;5.758;2023-04-01T01:40:50;2.38;;;0.80;;
43857;SDS011;29507;51.284;5.758;2023-04-01T01:43:19;4.15;;;0.73;;
43857;SDS011;29507;51.284;5.758;2023-04-01T01:45:49;4.22;;;0.73;;
43857;SDS011;29507;51.284;5.758;2023-04-01T01:48:22;3.67;;;0.93;;
43857;SDS011;29507;51.284;5.758;2023-04-01T01:50:49;1.45;;;0.73;;
43857;SDS011;29507;51.284;5.758;2023-04-01T01:53:16;2.65;;;0.68;;
43857;SDS011;29507;51.284;5.758;2023-04-01T01:55:45;1.70;;;0.60;;
43857;SDS011;29507;51.284;5.758;2023-04-01T02:00:38;2.72;;;0.55;;
43857;SDS011;29507;51.284;5.758;2023-04-01T02:03:05;2.03;;;0.68;;
43857;SDS011;29507;51.284;5.758;2023-04-01T02:05:31;3.28;;;1.08;;
43857;SDS011;29507;51.284;5.758;2023-04-01T02:08:00;3.13;;;0.80;;
43857;SDS011;29507;51.284;5.758;2023-04-01T02:10:32;3.05;;;0.50;;
43857;SDS011;29507;51.284;5.758;2023-04-01T02:13:03;1.70;;;0.77;;
43857;SDS011;29507;51.284;5.758;2023-04-01T02:15:33;2.75;;;0.65;;
43857;SDS011;29507;51.284;5.758;2023-04-01T02:18:05;1.67;;;0.60;;
43857;SDS011;29507;51.284;5.758;2023-04-01T02:20:31;1.30;;;0.50;;
43857;SDS011;29507;51.284;5.758;2023-04-01T02:22:57;4.38;;;0.82;;
43857;SDS011;29507;51.284;5.758;2023-04-01T02:25:29;5.03;;;1.15;;
43857;SDS011;29507;51.284;5.758;2023-04-01T02:27:58;3.80;;;0.85;;
43857;SDS011;29507;51.284;5.758;2023-04-01T02:30:26;5.90;;;1.10;;
43857;SDS011;29507;51.284;5.758;2023-04-01T02:32:55;1.88;;;0.75;;
43857;SDS011;29507;51.284;5.758;2023-04-01T02:35:22;2.97;;;0.80;;
43857;SDS011;29507;51.284;5.758;2023-04-01T02:37:48;2.55;;;0.85;;
43857;SDS011;29507;51.284;5.758;2023-04-01T02:40:15;4.07;;;0.82;;
43857;SDS011;29507;51.284;5.758;2023-04-01T02:42:42;1.73;;;1.00;;
43857;SDS011;29507;51.284;5.758;2023-04-01T02:45:08;5.75;;;1.20;;
43857;SDS011;29507;51.284;5.758;2023-04-01T02:47:35;3.13;;;1.00;;
43857;SDS011;29507;51.284;5.758;2023-04-01T02:50:00;1.67;;;0.77;;
43857;SDS011;29507;51.284;5.758;2023-04-01T02:52:27;2.53;;;0.88;;
43857;SDS011;29507;51.284;5.758;2023-04-01T02:54:54;1.23;;;0.80;;
43857;SDS011;29507;51.284;5.758;2023-04-01T02:57:20;1.77;;;1.02;;
43857;SDS011;29507;51.284;5.758;2023-04-01T02:59:45;2.20;;;0.93;;
43857;SDS011;29507;51.284;5.758;2023-04-01T03:02:12;2.78;;;1.05;;
43857;SDS011;29507;51.284;5.758;2023-04-01T03:04:37;5.40;;;1.40;;
43857;SDS011;29507;51.284;5.758;2023-04-01T03:07:03;3.78;;;1.95;;
43857;SDS011;29507;51.284;5.758;2023-04-01T03:09:29;4.90;;;1.90;;
43857;SDS011;29507;51.284;5.758;2023-04-01T03:11:55;3.25;;;1.83;;
43857;SDS011;29507;51.284;5.758;2023-04-01T03:14:20;3.78;;;1.60;;
43857;SDS011;29507;51.284;5.758;2023-04-01T03:16:46;4.07;;;1.50;;
43857;SDS011;29507;51.284;5.758;2023-04-01T03:19:12;5.82;;;1.80;;
43857;SDS011;29507;51.284;5.758;2023-04-01T03:21:37;5.18;;;1.50;;
43857;SDS011;29507;51.284;5.758;2023-04-01T03:24:03;3.78;;;1.80;;
43857;SDS011;29507;51.284;5.758;2023-04-01T03:26:29;5.75;;;1.70;;
43857;SDS011;29507;51.284;5.758;2023-04-01T03:28:55;6.68;;;2.08;;
43857;SDS011;29507;51.284;5.758;2023-04-01T03:31:20;3.60;;;1.92;;
43857;SDS011;29507;51.284;5.758;2023-04-01T03:33:46;6.95;;;2.00;;
43857;SDS011;29507;51.284;5.758;2023-04-01T03:36:12;3.28;;;1.60;;
43857;SDS011;29507;51.284;5.758;2023-04-01T03:38:39;3.00;;;1.50;;
43857;SDS011;29507;51.284;5.758;2023-04-01T03:41:05;4.07;;;1.85;;
43857;SDS011;29507;51.284;5.758;2023-04-01T03:43:31;3.92;;;1.67;;
43857;SDS011;29507;51.284;5.758;2023-04-01T03:45:57;4.32;;;1.42;;
43857;SDS011;29507;51.284;5.758;2023-04-01T03:48:24;3.85;;;1.17;;
43857;SDS011;29507;51.284;5.758;2023-04-01T03:50:50;4.38;;;1.50;;
43857;SDS011;29507;51.284;5.758;2023-04-01T03:53:16;2.83;;;1.30;;
43857;SDS011;29507;51.284;5.758;2023-04-01T03:55:42;8.15;;;1.88;;
43857;SDS011;29507;51.284;5.758;2023-04-01T03:58:09;2.88;;;1.40;;
43857;SDS011;29507;51.284;5.758;2023-04-01T04:00:35;5.85;;;1.73;;
43857;SDS011;29507;51.284;5.758;2023-04-01T04:03:01;3.33;;;1.42;;
43857;SDS011;29507;51.284;5.758;2023-04-01T04:05:27;3.53;;;1.80;;
43857;SDS011;29507;51.284;5.758;2023-04-01T04:07:53;4.07;;;1.73;;
43857;SDS011;29507;51.284;5.758;2023-04-01T04:10:18;4.88;;;1.90;;
43857;SDS011;29507;51.284;5.758;2023-04-01T04:12:44;4.05;;;1.58;;
43857;SDS011;29507;51.284;5.758;2023-04-01T04:15:10;4.25;;;2.20;;
43857;SDS011;29507;51.284;5.758;2023-04-01T04:17:36;6.85;;;2.25;;
43857;SDS011;29507;51.284;5.758;2023-04-01T04:20:01;8.25;;;2.42;;
43857;SDS011;29507;51.284;5.758;2023-04-01T04:22:28;5.38;;;2.47;;
43857;SDS011;29507;51.284;5.758;2023-04-01T04:24:53;5.30;;;2.78;;
43857;SDS011;29507;51.284;5.758;2023-04-01T04:27:19;7.45;;;3.35;;
43857;SDS011;29507;51.284;5.758;2023-04-01T04:29:45;5.22;;;2.92;;
43857;SDS011;29507;51.284;5.758;2023-04-01T04:32:10;5.80;;;3.15;;
43857;SDS011;29507;51.284;5.758;2023-04-01T04:34:36;4.15;;;2.72;;
43857;SDS011;29507;51.284;5.758;2023-04-01T04:37:02;5.10;;;3.03;;
43857;SDS011;29507;51.284;5.758;2023-04-01T04:39:27;7.03;;;3.63;;
43857;SDS011;29507;51.284;5.758;2023-04-01T04:41:53;6.07;;;3.45;;
43857;SDS011;29507;51.284;5.758;2023-04-01T04:44:19;6.03;;;3.15;;
43857;SDS011;29507;51.284;5.758;2023-04-01T04:46:44;6.30;;;3.38;;
43857;SDS011;29507;51.284;5.758;2023-04-01T04:49:10;7.13;;;4.32;;
43857;SDS011;29507;51.284;5.758;2023-04-01T04:51:36;5.93;;;3.78;;
43857;SDS011;29507;51.284;5.758;2023-04-01T04:54:04;8.07;;;4.47;;
43857;SDS011;29507;51.284;5.758;2023-04-01T04:56:31;7.68;;;3.88;;
43857;SDS011;29507;51.284;5.758;2023-04-01T04:58:57;7.22;;;4.30;;
43857;SDS011;29507;51.284;5.758;2023-04-01T05:01:23;8.35;;;4.65;;
43857;SDS011;29507;51.284;5.758;2023-04-01T05:03:48;8.65;;;4.30;;
43857;SDS011;29507;51.284;5.758;2023-04-01T05:06:15;7.13;;;4.93;;
43857;SDS011;29507;51.284;5.758;2023-04-01T05:08:41;10.18;;;4.60;;
43857;SDS011;29507;51.284;5.758;2023-04-01T05:11:17;7.22;;;4.25;;
43857;SDS011;29507;51.284;5.758;2023-04-01T05:13:45;7.57;;;4.13;;
43857;SDS011;29507;51.284;5.758;2023-04-01T05:16:12;7.90;;;4.00;;
43857;SDS011;29507;51.284;5.758;2023-04-01T05:18:40;6.97;;;3.67;;
43857;SDS011;29507;51.284;5.758;2023-04-01T05:21:06;7.82;;;4.30;;
43857;SDS011;29507;51.284;5.758;2023-04-01T05:23:34;6.53;;;4.07;;
43857;SDS011;29507;51.284;5.758;2023-04-01T05:26:07;9.88;;;4.10;;
43857;SDS011;29507;51.284;5.758;2023-04-01T05:28:35;6.97;;;4.35;;
43857;SDS011;29507;51.284;5.758;2023-04-01T05:31:01;10.00;;;4.15;;
43857;SDS011;29507;51.284;5.758;2023-04-01T05:33:28;7.45;;;4.10;;
43857;SDS011;29507;51.284;5.758;2023-04-01T05:35:54;8.23;;;4.30;;
43857;SDS011;29507;51.284;5.758;2023-04-01T05:38:20;8.50;;;3.60;;
43857;SDS011;29507;51.284;5.758;2023-04-01T05:40:46;9.93;;;4.85;;
43857;SDS011;29507;51.284;5.758;2023-04-01T05:43:12;7.47;;;4.38;;
43857;SDS011;29507;51.284;5.758;2023-04-01T05:45:37;7.18;;;4.18;;
43857;SDS011;29507;51.284;5.758;2023-04-01T05:48:03;6.90;;;4.00;;
43857;SDS011;29507;51.284;5.758;2023-04-01T05:50:29;8.00;;;4.00;;
43857;SDS011;29507;51.284;5.758;2023-04-01T05:52:55;7.43;;;3.92;;
43857;SDS011;29507;51.284;5.758;2023-04-01T05:55:21;7.05;;;3.95;;
43857;SDS011;29507;51.284;5.758;2023-04-01T05:57:46;7.60;;;3.65;;
43857;SDS011;29507;51.284;5.758;2023-04-01T06:00:14;6.50;;;3.20;;
43857;SDS011;29507;51.284;5.758;2023-04-01T06:02:41;6.70;;;4.00;;
43857;SDS011;29507;51.284;5.758;2023-04-01T06:05:18;6.38;;;3.85;;
43857;SDS011;29507;51.284;5.758;2023-04-01T06:07:47;7.07;;;3.70;;
43857;SDS011;29507;51.284;5.758;2023-04-01T06:10:14;5.93;;;3.60;;
43857;SDS011;29507;51.284;5.758;2023-04-01T06:13:00;5.20;;;3.17;;
43857;SDS011;29507;51.284;5.758;2023-04-01T06:15:43;7.10;;;3.40;;
43857;SDS011;29507;51.284;5.758;2023-04-01T06:18:25;5.18;;;3.40;;
43857;SDS011;29507;51.284;5.758;2023-04-01T06:24:18;7.63;;;3.08;;
43857;SDS011;29507;51.284;5.758;2023-04-01T06:29:57;7.82;;;3.53;;
43857;SDS011;29507;51.284;5.758;2023-04-01T06:32:40;5.45;;;3.25;;
43857;SDS011;29507;51.284;5.758;2023-04-01T06:35:17;5.32;;;3.15;;
43857;SDS011;29507;51.284;5.758;2023-04-01T06:51:28;5.30;;;3.08;;
43857;SDS011;29507;51.284;5.758;2023-04-01T06:56:40;5.72;;;2.88;;
43857;SDS011;29507;51.284;5.758;2023-04-01T06:59:17;6.10;;;3.00;;
43857;SDS011;29507;51.284;5.758;2023-04-01T07:01:47;5.07;;;2.17;;
43857;SDS011;29507;51.284;5.758;2023-04-01T07:04:25;4.20;;;2.80;;
43857;SDS011;29507;51.284;5.758;2023-04-01T07:06:57;5.47;;;2.60;;
43857;SDS011;29507;51.284;5.758;2023-04-01T07:09:32;4.82;;;2.63;;
43857;SDS011;29507;51.284;5.758;2023-04-01T07:12:09;5.78;;;2.38;;
43857;SDS011;29507;51.284;5.758;2023-04-01T07:14:41;5.22;;;2.53;;
43857;SDS011;29507;51.284;5.758;2023-04-01T07:17:11;3.67;;;2.25;;
43857;SDS011;29507;51.284;5.758;2023-04-01T07:22:32;6.10;;;2.60;;
43857;SDS011;29507;51.284;5.758;2023-04-01T07:25:25;4.03;;;2.47;;
43857;SDS011;29507;51.284;5.758;2023-04-01T07:27:56;4.78;;;2.55;;
43857;SDS011;29507;51.284;5.758;2023-04-01T07:30:34;5.32;;;3.00;;
43857;SDS011;29507;51.284;5.758;2023-04-01T07:33:33;3.78;;;2.42;;
43857;SDS011;29507;51.284;5.758;2023-04-01T07:39:05;4.25;;;2.35;;
43857;SDS011;29507;51.284;5.758;2023-04-01T07:41:53;4.60;;;2.55;;
43857;SDS011;29507;51.284;5.758;2023-04-01T07:45:07;4.63;;;2.75;;
43857;SDS011;29507;51.284;5.758;2023-04-01T07:50:29;4.63;;;2.42;;
43857;SDS011;29507;51.284;5.758;2023-04-01T07:55:56;5.25;;;3.38;;
43857;SDS011;29507;51.284;5.758;2023-04-01T08:03:43;8.27;;;3.78;;
43857;SDS011;29507;51.284;5.758;2023-04-01T08:06:17;7.35;;;3.72;;
43857;SDS011;29507;51.284;5.758;2023-04-01T08:11:54;9.50;;;4.88;;
43857;SDS011;29507;51.284;5.758;2023-04-01T08:23:12;13.05;;;6.18;;
43857;SDS011;29507;51.284;5.758;2023-04-01T08:25:44;14.82;;;6.45;;
43857;SDS011;29507;51.284;5.758;2023-04-01T08:28:21;17.67;;;7.13;;
43857;SDS011;29507;51.284;5.758;2023-04-01T08:31:00;17.08;;;7.40;;
43857;SDS011;29507;51.284;5.758;2023-04-01T08:33:35;15.65;;;8.30;;
43857;SDS011;29507;51.284;5.758;2023-04-01T08:36:03;15.90;;;8.15;;
43857;SDS011;29507;51.284;5.758;2023-04-01T09:00:32;10.40;;;5.38;;
43857;SDS011;29507;51.284;5.758;2023-04-01T09:11:07;7.70;;;4.00;;
43857;SDS011;29507;51.284;5.758;2023-04-01T09:16:34;9.20;;;4.18;;
43857;SDS011;29507;51.284;5.758;2023-04-01T09:19:21;5.60;;;3.50;;
43857;SDS011;29507;51.284;5.758;2023-04-01T09:22:36;5.63;;;3.33;;
43857;SDS011;29507;51.284;5.758;2023-04-01T09:25:09;6.63;;;3.90;;
43857;SDS011;29507;51.284;5.758;2023-04-01T09:44:00;5.80;;;3.42;;
43857;SDS011;29507;51.284;5.758;2023-04-01T09:51:59;8.80;;;4.47;;
43857;SDS011;29507;51.284;5.758;2023-04-01T10:11:19;8.00;;;4.72;;
43857;SDS011;29507;51.284;5.758;2023-04-01T10:14:13;8.45;;;5.32;;
43857;SDS011;29507;51.284;5.758;2023-04-01T10:41:20;9.00;;;5.35;;
43857;SDS011;29507;51.284;5.758;2023-04-01T10:44:22;10.68;;;5.72;;
43857;SDS011;29507;51.284;5.758;2023-04-01T10:55:53;9.13;;;5.30;;
43857;SDS011;29507;51.284;5.758;2023-04-01T11:01:59;8.18;;;4.47;;
43857;SDS011;29507;51.284;5.758;2023-04-01T11:16:31;7.07;;;4.25;;
43857;SDS011;29507;51.284;5.758;2023-04-01T11:24:59;5.75;;;3.47;;
43857;SDS011;29507;51.284;5.758;2023-04-01T11:27:35;6.80;;;3.25;;
43857;SDS011;29507;51.284;5.758;2023-04-01T11:30:19;5.78;;;3.33;;
43857;SDS011;29507;51.284;5.758;2023-04-01T11:46:03;5.07;;;1.98;;
43857;SDS011;29507;51.284;5.758;2023-04-01T11:51:29;5.00;;;2.70;;
43857;SDS011;29507;51.284;5.758;2023-04-01T11:54:28;5.28;;;2.63;;
43857;SDS011;29507;51.284;5.758;2023-04-01T12:05:38;3.95;;;2.58;;
43857;SDS011;29507;51.284;5.758;2023-04-01T12:08:33;4.55;;;2.40;;
43857;SDS011;29507;51.284;5.758;2023-04-01T12:18:53;6.40;;;2.97;;
43857;SDS011;29507;51.284;5.758;2023-04-01T12:21:28;5.43;;;3.30;;
43857;SDS011;29507;51.284;5.758;2023-04-01T12:26:52;6.38;;;3.47;;
43857;SDS011;29507;51.284;5.758;2023-04-01T12:38:39;5.05;;;2.28;;
43857;SDS011;29507;51.284;5.758;2023-04-01T12:55:25;5.68;;;2.60;;
43857;SDS011;29507;51.284;5.758;2023-04-01T13:34:31;4.90;;;2.50;;
43857;SDS011;29507;51.284;5.758;2023-04-01T13:37:25;4.70;;;2.67;;
43857;SDS011;29507;51.284;5.758;2023-04-01T13:40:33;3.65;;;2.25;;
43857;SDS011;29507;51.284;5.758;2023-04-01T13:43:11;4.53;;;2.30;;
43857;SDS011;29507;51.284;5.758;2023-04-01T14:27:24;5.55;;;3.03;;
43857;SDS011;29507;51.284;5.758;2023-04-01T14:30:05;4.40;;;3.08;;
43857;SDS011;29507;51.284;5.758;2023-04-01T14:35:22;5.07;;;3.08;;
43857;SDS011;29507;51.284;5.758;2023-04-01T14:40:28;6.10;;;2.88;;
43857;SDS011;29507;51.284;5.758;2023-04-01T14:48:51;5.90;;;3.13;;
43857;SDS011;29507;51.284;5.758;2023-04-01T14:56:51;8.40;;;3.53;;
43857;SDS011;29507;51.284;5.758;2023-04-01T14:59:47;7.00;;;3.65;;
43857;SDS011;29507;51.284;5.758;2023-04-01T15:02:30;7.25;;;3.78;;
43857;SDS011;29507;51.284;5.758;2023-04-01T15:05:10;6.38;;;4.35;;
43857;SDS011;29507;51.284;5.758;2023-04-01T15:08:08;7.38;;;4.28;;
43857;SDS011;29507;51.284;5.758;2023-04-01T15:10:41;6.88;;;4.43;;
43857;SDS011;29507;51.284;5.758;2023-04-01T15:24:39;6.82;;;3.95;;
43857;SDS011;29507;51.284;5.758;2023-04-01T15:35:32;7.10;;;4.15;;
43857;SDS011;29507;51.284;5.758;2023-04-01T15:40:54;5.72;;;3.70;;
43857;SDS011;29507;51.284;5.758;2023-04-01T15:43:49;5.50;;;3.53;;
43857;SDS011;29507;51.284;5.758;2023-04-01T15:47:01;6.78;;;3.70;;
43857;SDS011;29507;51.284;5.758;2023-04-01T16:14:01;5.60;;;2.08;;
43857;SDS011;29507;51.284;5.758;2023-04-01T16:20:02;4.43;;;2.30;;
43857;SDS011;29507;51.284;5.758;2023-04-01T16:22:37;4.28;;;2.42;;
43857;SDS011;29507;51.284;5.758;2023-04-01T16:30:57;7.10;;;3.15;;
43857;SDS011;29507;51.284;5.758;2023-04-01T16:33:40;5.75;;;2.88;;
43857;SDS011;29507;51.284;5.758;2023-04-01T16:41:49;5.63;;;2.75;;
43857;SDS011;29507;51.284;5.758;2023-04-01T16:44:46;4.45;;;2.60;;
43857;SDS011;29507;51.284;5.758;2023-04-01T16:47:14;5.53;;;2.25;;
43857;SDS011;29507;51.284;5.758;2023-04-01T16:52:59;4.93;;;2.95;;
43857;SDS011;29507;51.284;5.758;2023-04-01T16:55:54;5.20;;;2.10;;
43857;SDS011;29507;51.284;5.758;2023-04-01T17:01:20;4.15;;;1.90;;
43857;SDS011;29507;51.284;5.758;2023-04-01T17:03:57;3.22;;;1.63;;
43857;SDS011;29507;51.284;5.758;2023-04-01T17:09:44;5.13;;;1.70;;
43857;SDS011;29507;51.284;5.758;2023-04-01T17:15:36;3.45;;;1.58;;
43857;SDS011;29507;51.284;5.758;2023-04-01T17:18:20;3.30;;;1.85;;
43857;SDS011;29507;51.284;5.758;2023-04-01T17:21:05;4.20;;;1.60;;
43857;SDS011;29507;51.284;5.758;2023-04-01T17:23:43;4.15;;;1.85;;
43857;SDS011;29507;51.284;5.758;2023-04-01T17:28:46;4.22;;;2.60;;
43857;SDS011;29507;51.284;5.758;2023-04-01T17:33:49;4.78;;;2.75;;
43857;SDS011;29507;51.284;5.758;2023-04-01T17:42:10;4.72;;;2.60;;
43857;SDS011;29507;51.284;5.758;2023-04-01T17:44:52;4.38;;;2.60;;
43857;SDS011;29507;51.284;5.758;2023-04-01T17:50:33;3.63;;;2.13;;
43857;SDS011;29507;51.284;5.758;2023-04-01T17:58:20;5.88;;;2.88;;
43857;SDS011;29507;51.284;5.758;2023-04-01T18:06:31;5.15;;;3.10;;
43857;SDS011;29507;51.284;5.758;2023-04-01T18:16:52;6.18;;;3.35;;
43857;SDS011;29507;51.284;5.758;2023-04-01T18:22:19;6.03;;;3.25;;
43857;SDS011;29507;51.284;5.758;2023-04-01T18:25:01;6.78;;;3.50;;
43857;SDS011;29507;51.284;5.758;2023-04-01T18:27:40;6.57;;;4.03;;
43857;SDS011;29507;51.284;5.758;2023-04-01T18:30:21;8.55;;;4.05;;
43857;SDS011;29507;51.284;5.758;2023-04-01T18:33:04;6.68;;;4.40;;
43857;SDS011;29507;51.284;5.758;2023-04-01T18:38:45;8.50;;;4.18;;
43857;SDS011;29507;51.284;5.758;2023-04-01T18:41:12;9.15;;;5.15;;
43857;SDS011;29507;51.284;5.758;2023-04-01T18:43:58;8.18;;;4.43;;
43857;SDS011;29507;51.284;5.758;2023-04-01T18:46:39;8.82;;;4.70;;
43857;SDS011;29507;51.284;5.758;2023-04-01T19:00:19;11.18;;;5.82;;
43857;SDS011;29507;51.284;5.758;2023-04-01T19:03:02;12.52;;;6.28;;
43857;SDS011;29507;51.284;5.758;2023-04-01T19:05:38;12.73;;;7.00;;
43857;SDS011;29507;51.284;5.758;2023-04-01T19:08:14;15.35;;;7.25;;
43857;SDS011;29507;51.284;5.758;2023-04-01T19:24:55;8.98;;;4.53;;
43857;SDS011;29507;51.284;5.758;2023-04-01T19:27:35;8.88;;;4.45;;
43857;SDS011;29507;51.284;5.758;2023-04-01T19:35:38;6.10;;;3.63;;
43857;SDS011;29507;51.284;5.758;2023-04-01T19:41:09;6.22;;;3.28;;
43857;SDS011;29507;51.284;5.758;2023-04-01T19:51:59;6.95;;;3.78;;
43857;SDS011;29507;51.284;5.758;2023-04-01T20:00:28;7.88;;;4.13;;
43857;SDS011;29507;51.284;5.758;2023-04-01T20:03:11;5.28;;;3.00;;
43857;SDS011;29507;51.284;5.758;2023-04-01T20:06:10;6.60;;;3.95;;
43857;SDS011;29507;51.284;5.758;2023-04-01T20:17:02;8.57;;;4.15;;
43857;SDS011;29507;51.284;5.758;2023-04-01T20:20:01;7.60;;;4.15;;
43857;SDS011;29507;51.284;5.758;2023-04-01T20:25:14;8.98;;;3.97;;
43857;SDS011;29507;51.284;5.758;2023-04-01T20:27:44;7.25;;;4.00;;
43857;SDS011;29507;51.284;5.758;2023-04-01T20:38:50;6.30;;;3.78;;
43857;SDS011;29507;51.284;5.758;2023-04-01T20:47:21;8.15;;;3.95;;
43857;SDS011;29507;51.284;5.758;2023-04-01T20:52:57;11.25;;;4.72;;
43857;SDS011;29507;51.284;5.758;2023-04-01T21:03:38;10.13;;;5.40;;
43857;SDS011;29507;51.284;5.758;2023-04-01T21:20:28;7.05;;;4.32;;
43857;SDS011;29507;51.284;5.758;2023-04-01T21:23:17;7.68;;;4.65;;
43857;SDS011;29507;51.284;5.758;2023-04-01T21:26:12;7.63;;;4.35;;
43857;SDS011;29507;51.284;5.758;2023-04-01T21:33:00;8.50;;;5.32;;
43857;SDS011;29507;51.284;5.758;2023-04-01T21:37:54;7.32;;;4.60;;
43857;SDS011;29507;51.284;5.758;2023-04-01T21:46:01;5.85;;;3.30;;
43857;SDS011;29507;51.284;5.758;2023-04-01T21:57:25;4.63;;;2.88;;
43857;SDS011;29507;51.284;5.758;2023-04-01T22:11:42;5.72;;;3.30;;
43857;SDS011;29507;51.284;5.758;2023-04-01T22:14:33;8.73;;;4.32;;
43857;SDS011;29507;51.284;5.758;2023-04-01T22:17:21;6.50;;;3.80;;
43857;SDS011;29507;51.284;5.758;2023-04-01T22:20:04;6.40;;;3.30;;
43857;SDS011;29507;51.284;5.758;2023-04-01T22:25:22;7.95;;;4.60;;
43857;SDS011;29507;51.284;5.758;2023-04-01T22:30:39;5.68;;;3.38;;
43857;SDS011;29507;51.284;5.758;2023-04-01T22:43:47;4.55;;;2.50;;
43857;SDS011;29507;51.284;5.758;2023-04-01T22:49:23;4.40;;;2.60;;
43857;SDS011;29507;51.284;5.758;2023-04-01T22:52:07;5.25;;;2.63;;
43857;SDS011;29507;51.284;5.758;2023-04-01T22:54:46;7.00;;;3.25;;
43857;SDS011;29507;51.284;5.758;2023-04-01T22:57:28;5.32;;;3.13;;
43857;SDS011;29507;51.284;5.758;2023-04-01T23:00:21;5.13;;;2.53;;
43857;SDS011;29507;51.284;5.758;2023-04-01T23:03:08;5.63;;;3.40;;
43857;SDS011;29507;51.284;5.758;2023-04-01T23:05:40;5.90;;;3.40;;
43857;SDS011;29507;51.284;5.758;2023-04-01T23:09:02;7.05;;;3.33;;
43857;SDS011;29507;51.284;5.758;2023-04-01T23:11:17;6.32;;;3.40;;
43857;SDS011;29507;51.284;5.758;2023-04-01T23:13:52;5.75;;;3.65;;
43857;SDS011;29507;51.284;5.758;2023-04-01T23:16:31;7.80;;;4.93;;
43857;SDS011;29507;51.284;5.758;2023-04-01T23:25:24;4.53;;;2.88;;
43857;SDS011;29507;51.284;5.758;2023-04-01T23:36:00;6.28;;;4.47;;
43857;SDS011;29507;51.284;5.758;2023-04-01T23:38:40;6.07;;;3.38;;
43857;SDS011;29507;51.284;5.758;2023-04-01T23:41:07;5.45;;;3.65;;
43857;SDS011;29507;51.284;5.758;2023-04-01T23:43:43;6.50;;;4.03;;
43857;SDS011;29507;51.284;5.758;2023-04-01T23:46:14;7.13;;;4.00;;
43857;SDS011;29507;51.284;5.758;2023-04-01T23:48:41;5.78;;;3.72;;
43857;SDS011;29507;51.284;5.758;2023-04-01T23:53:44;5.82;;;3.28;;
43857;SDS011;29507;51.284;5.758;2023-04-01T23:56:11;5.95;;;3.88;;
43857;SDS011;29507;51.284;5.758;2023-04-01T23:58:44;4.50;;;2.88;;
